Terminal Aerodrome Forecast
Issued by NWS

Home | Current Version | Previous Version | Graphics & Text | Print | Product List | Glossary Off
Versions: 1 2 3 4 5 6 7 8 9 10 11 12 13 14 15 16 17 18 19 20 21 22 23 24 25 26 27 28 29 30 31 32 33 34 35 36 37 38 39 40 41 42 43 44 45 46 47

000
FTUS43 KDDC 241148 RRA
TAFGCK
TAF
KGCK 241148Z 2412/2512 13007KT 1/4SM FG OVC002
     FM241400 15010KT 3/4SM BR BKN005
     FM241600 15010KT 4SM BR OVC008
     FM242200 12010KT P6SM VCTS SCT050CB BKN100
     FM250200 14012KT 4SM BR OVC015 PROB30 2504/2508 1 1/2SM TS
      BKN003CB
     FM251000 16011KT 4SM BR OVC007
     FM251100 18010KT 2SM BR OVC003=

USA.gov is the U.S. government's official web portal to all federal, state and local government web resources and services.